UAE561 OMDB-KMIA
Flight info
| Callsign | UAE561 |
|---|---|
| Flight time | N/A |
| Altitude | 30000 |
| Route | ANVIX R401 GIDIS G783 VAVIM DCT ESROM M318 GOLGU M550 RIBOT DCT MIGMA DCT SITUK M321 KSA T503 OVANO L768 KUMLO/N0495F320 L768 FIRAS R655 KTN/N0469F260 R655 LEBOR/N0495F320 UR655 BALMA L620 VESAR UB545 MUT UL619 OSVEL UQ23 OSDAN UQ26 TUDBU DCT NAVOD DCT MAVIR DCT ARSIN/N0483F340 DCT PEROL DCT RENKA DCT INBED DCT BOMBI DCT ADKUV DCT LENDO DCT SOGRI DCT DENUT L610 KOPUL DCT ENHAQ DCT GAJIT DCT BAPHU DCT LESLU/M084F340 DCT MAPAG DCT ELSOX DCT DINIM/M084F350 DCT 51N020W 50N030W 48N040W 46N050W DCT SUPRY/M084F360 DCT LOMPI M202 MUNEY/M084F380 M202 ONGOT DCT PADRK M203 SNAGY/N0486F380 BNFSH3 |
| Aircraft | B77W/H-SDE1E2E3FGHIJ2J3J4J5M1RWXY/LB1D1 |
Departure
| Time | 2026-05-07 23:03 |
|---|---|
| Airport | Dubai International Airport (OMDB) |
Arrival
| Time | N/A |
|---|---|
| Airport | Miami International Airport (KMIA) |
| Time | Latitude | Longitude | Altitude | Speed | Heading |
|---|---|---|---|---|---|
| 2026-05-07 22:33 | 25.24627 | 55.36369 | 26 ft | 0 kts | 31° |
| 2026-05-07 22:52 | 25.24613 | 55.36359 | 29 ft | 4 kts | 31° |
| 2026-05-07 22:52 | 25.24589 | 55.36344 | 31 ft | 4 kts | 31° |
| 2026-05-07 22:53 | 25.24571 | 55.36331 | 26 ft | 4 kts | 47° |
| 2026-05-07 22:53 | 25.24563 | 55.36308 | 26 ft | 4 kts | 107° |
| 2026-05-07 22:53 | 25.24574 | 55.36283 | 26 ft | 4 kts | 122° |
| 2026-05-07 22:53 | 25.24588 | 55.36258 | 31 ft | 3 kts | 122° |
| 2026-05-07 22:54 | 25.24590 | 55.36254 | 26 ft | 0 kts | 122° |
| 2026-05-07 22:55 | 25.24570 | 55.36289 | 28 ft | 9 kts | 122° |
| 2026-05-07 22:56 | 25.24536 | 55.36349 | 30 ft | 9 kts | 122° |
| 2026-05-07 22:56 | 25.24503 | 55.36408 | 31 ft | 9 kts | 122° |
| 2026-05-07 22:56 | 25.24470 | 55.36472 | 30 ft | 12 kts | 116° |
| 2026-05-07 22:56 | 25.24454 | 55.36591 | 28 ft | 17 kts | 76° |
| 2026-05-07 22:57 | 25.24523 | 55.36686 | 29 ft | 17 kts | 39° |
| 2026-05-07 22:57 | 25.24619 | 55.36754 | 29 ft | 17 kts | 32° |
| 2026-05-07 22:57 | 25.24712 | 55.36817 | 28 ft | 8 kts | 31° |
| 2026-05-07 22:57 | 25.24752 | 55.36843 | 27 ft | 12 kts | 30° |
| 2026-05-07 22:58 | 25.24812 | 55.36907 | 26 ft | 14 kts | 79° |
| 2026-05-07 22:58 | 25.24767 | 55.37005 | 26 ft | 16 kts | 122° |
| 2026-05-07 22:58 | 25.24702 | 55.37122 | 27 ft | 19 kts | 122° |
| 2026-05-07 22:58 | 25.24614 | 55.37279 | 26 ft | 26 kts | 121° |
| 2026-05-07 22:59 | 25.24519 | 55.37448 | 30 ft | 26 kts | 122° |
| 2026-05-07 22:59 | 25.24424 | 55.37620 | 31 ft | 26 kts | 121° |
| 2026-05-07 22:59 | 25.24327 | 55.37790 | 29 ft | 26 kts | 122° |
| 2026-05-07 22:59 | 25.24239 | 55.37946 | 26 ft | 13 kts | 121° |
| 2026-05-07 23:00 | 25.24221 | 55.37977 | 26 ft | 0 kts | 121° |
| 2026-05-07 23:00 | 25.24207 | 55.38021 | 27 ft | 10 kts | 85° |
| 2026-05-07 23:00 | 25.24264 | 55.38094 | 29 ft | 18 kts | 33° |
| 2026-05-07 23:00 | 25.24417 | 55.38195 | 29 ft | 30 kts | 31° |
| 2026-05-07 23:01 | 25.24568 | 55.38298 | 27 ft | 16 kts | 32° |
| 2026-05-07 23:01 | 25.24623 | 55.38317 | 26 ft | 7 kts | 353° |
| 2026-05-07 23:01 | 25.24659 | 55.38287 | 27 ft | 7 kts | 303° |
| 2026-05-07 23:01 | 25.24660 | 55.38285 | 27 ft | 0 kts | 302° |
| 2026-05-07 23:02 | 25.24685 | 55.38242 | 27 ft | 31 kts | 302° |
| 2026-05-07 23:02 | 25.24940 | 55.37785 | 30 ft | 107 kts | 301° |
| 2026-05-07 23:02 | 25.25456 | 55.36856 | 29 ft | 175 kts | 301° |
| 2026-05-07 23:02 | 25.26163 | 55.35533 | 163 ft | 211 kts | 300° |
| 2026-05-07 23:03 | 25.26882 | 55.34184 | 921 ft | 200 kts | 300° |
| 2026-05-07 23:03 | 25.27609 | 55.32883 | 1589 ft | 198 kts | 301° |
| 2026-05-07 23:03 | 25.28335 | 55.31607 | 2114 ft | 194 kts | 300° |
| 2026-05-07 23:03 | 25.29041 | 55.30346 | 2473 ft | 192 kts | 295° |
| 2026-05-07 23:04 | 25.29253 | 55.28923 | 2576 ft | 193 kts | 255° |
| 2026-05-07 23:04 | 25.28724 | 55.27565 | 2672 ft | 200 kts | 246° |
| 2026-05-07 23:04 | 25.28126 | 55.26145 | 2847 ft | 208 kts | 247° |
| 2026-05-07 23:04 | 25.27510 | 55.24673 | 3211 ft | 207 kts | 246° |
| 2026-05-07 23:05 | 25.26905 | 55.23244 | 3601 ft | 204 kts | 246° |
| 2026-05-07 23:05 | 25.26306 | 55.21828 | 3955 ft | 203 kts | 245° |
| 2026-05-07 23:05 | 25.25693 | 55.20380 | 4073 ft | 215 kts | 246° |
| 2026-05-07 23:05 | 25.25051 | 55.18863 | 4281 ft | 225 kts | 245° |
| 2026-05-07 23:06 | 25.24168 | 55.17427 | 4520 ft | 233 kts | 219° |
| 2026-05-07 23:06 | 25.22655 | 55.16731 | 4736 ft | 246 kts | 186° |
| 2026-05-07 23:06 | 25.20916 | 55.16791 | 5014 ft | 254 kts | 179° |
| 2026-05-07 23:06 | 25.19168 | 55.17135 | 5325 ft | 262 kts | 155° |
| 2026-05-07 23:07 | 25.17773 | 55.18461 | 5500 ft | 276 kts | 122° |
| 2026-05-07 23:07 | 25.16873 | 55.20369 | 5732 ft | 285 kts | 117° |
| 2026-05-07 23:07 | 25.15967 | 55.22340 | 6168 ft | 290 kts | 118° |
| 2026-05-07 23:07 | 25.15026 | 55.24316 | 6664 ft | 291 kts | 118° |
| 2026-05-07 23:08 | 25.14088 | 55.26274 | 7194 ft | 293 kts | 119° |
| 2026-05-07 23:08 | 25.13134 | 55.28268 | 7714 ft | 296 kts | 118° |
| 2026-05-07 23:08 | 25.12170 | 55.30285 | 8255 ft | 298 kts | 118° |
| 2026-05-07 23:08 | 25.11194 | 55.32309 | 8764 ft | 299 kts | 119° |
| 2026-05-07 23:09 | 25.10244 | 55.34358 | 9277 ft | 301 kts | 115° |
| 2026-05-07 23:09 | 25.09376 | 55.36469 | 9776 ft | 304 kts | 114° |
| 2026-05-07 23:09 | 25.08518 | 55.38606 | 10255 ft | 305 kts | 114° |
| 2026-05-07 23:09 | 25.07651 | 55.40740 | 10828 ft | 304 kts | 115° |
| 2026-05-07 23:10 | 25.06794 | 55.42874 | 11300 ft | 307 kts | 114° |
| 2026-05-07 23:10 | 25.05938 | 55.45103 | 11447 ft | 325 kts | 113° |
| 2026-05-07 23:10 | 25.05054 | 55.47425 | 11599 ft | 341 kts | 113° |
| 2026-05-07 23:10 | 25.04106 | 55.49895 | 11742 ft | 358 kts | 113° |
| 2026-05-07 23:11 | 25.03108 | 55.52488 | 11880 ft | 375 kts | 113° |
| 2026-05-07 23:11 | 25.02074 | 55.55166 | 12273 ft | 383 kts | 114° |
| 2026-05-07 23:11 | 25.00867 | 55.57797 | 12771 ft | 387 kts | 121° |
| 2026-05-07 23:11 | 24.99455 | 55.60330 | 13429 ft | 387 kts | 122° |
| 2026-05-07 23:12 | 24.98014 | 55.62837 | 14087 ft | 387 kts | 122° |
| 2026-05-07 23:12 | 24.96601 | 55.65369 | 14595 ft | 390 kts | 121° |
| 2026-05-07 23:12 | 24.95212 | 55.67917 | 15026 ft | 396 kts | 121° |
| 2026-05-07 23:12 | 24.93783 | 55.70528 | 15482 ft | 400 kts | 123° |
| 2026-05-07 23:13 | 24.92197 | 55.73053 | 15988 ft | 403 kts | 126° |
| 2026-05-07 23:13 | 24.90511 | 55.75528 | 16473 ft | 406 kts | 127° |
| 2026-05-07 23:13 | 24.88799 | 55.78018 | 16947 ft | 410 kts | 127° |
| 2026-05-07 23:13 | 24.87090 | 55.80547 | 17405 ft | 413 kts | 126° |
| 2026-05-07 23:14 | 24.85381 | 55.83113 | 17893 ft | 417 kts | 126° |
| 2026-05-07 23:14 | 24.83662 | 55.85703 | 18337 ft | 420 kts | 126° |
| 2026-05-07 23:14 | 24.81922 | 55.88296 | 18758 ft | 423 kts | 126° |
| 2026-05-07 23:14 | 24.80121 | 55.90796 | 19091 ft | 423 kts | 135° |
| 2026-05-07 23:15 | 24.77713 | 55.92677 | 19286 ft | 431 kts | 156° |
| 2026-05-07 23:15 | 24.74844 | 55.93651 | 19669 ft | 434 kts | 171° |
| 2026-05-07 23:15 | 24.71826 | 55.93779 | 20121 ft | 435 kts | 182° |
| 2026-05-07 23:15 | 24.68804 | 55.93593 | 20601 ft | 435 kts | 182° |
| 2026-05-07 23:16 | 24.65770 | 55.93458 | 21028 ft | 438 kts | 181° |
| 2026-05-07 23:16 | 24.62731 | 55.93241 | 21313 ft | 440 kts | 189° |
| 2026-05-07 23:16 | 24.59778 | 55.92301 | 21569 ft | 446 kts | 204° |
| 2026-05-07 23:16 | 24.57075 | 55.90621 | 21911 ft | 448 kts | 216° |
| 2026-05-07 23:17 | 24.54747 | 55.88425 | 22285 ft | 448 kts | 222° |
| 2026-05-07 23:17 | 24.52433 | 55.86116 | 22632 ft | 451 kts | 221° |
| 2026-05-07 23:17 | 24.50093 | 55.83811 | 23008 ft | 453 kts | 221° |
| 2026-05-07 23:17 | 24.47732 | 55.81514 | 23401 ft | 454 kts | 221° |
| 2026-05-07 23:18 | 24.45358 | 55.79226 | 23723 ft | 455 kts | 221° |
| 2026-05-07 23:18 | 24.42969 | 55.76935 | 24030 ft | 457 kts | 221° |
| 2026-05-07 23:18 | 24.40573 | 55.74638 | 24358 ft | 458 kts | 221° |
| 2026-05-07 23:18 | 24.38169 | 55.72336 | 24667 ft | 459 kts | 221° |
| 2026-05-07 23:19 | 24.35762 | 55.70025 | 24970 ft | 461 kts | 221° |
| 2026-05-07 23:19 | 24.33353 | 55.67696 | 25274 ft | 462 kts | 221° |
| 2026-05-07 23:19 | 24.30968 | 55.65393 | 25570 ft | 464 kts | 221° |
| 2026-05-07 23:19 | 24.28607 | 55.62985 | 25824 ft | 465 kts | 228° |
| 2026-05-07 23:20 | 24.26606 | 55.60197 | 26033 ft | 467 kts | 237° |
| 2026-05-07 23:20 | 24.24972 | 55.57108 | 26318 ft | 469 kts | 244° |
| 2026-05-07 23:20 | 24.23734 | 55.53801 | 26608 ft | 470 kts | 251° |
| 2026-05-07 23:20 | 24.22694 | 55.50410 | 26890 ft | 470 kts | 251° |
| 2026-05-07 23:21 | 24.21665 | 55.47004 | 27143 ft | 472 kts | 251° |
| 2026-05-07 23:21 | 24.20980 | 55.44740 | 27330 ft | 473 kts | 251° |
| 2026-05-07 23:21 | 24.19937 | 55.41315 | 27597 ft | 474 kts | 251° |
| 2026-05-07 23:21 | 24.18884 | 55.37886 | 27860 ft | 476 kts | 251° |
| 2026-05-07 23:22 | 24.17819 | 55.34451 | 28130 ft | 476 kts | 251° |
| 2026-05-07 23:22 | 24.16395 | 55.29900 | 28424 ft | 478 kts | 251° |
| 2026-05-07 23:22 | 24.15314 | 55.26452 | 28650 ft | 480 kts | 251° |
| 2026-05-07 23:22 | 24.14228 | 55.22991 | 28858 ft | 481 kts | 251° |
| 2026-05-07 23:23 | 24.13135 | 55.19525 | 29106 ft | 482 kts | 251° |
| 2026-05-07 23:23 | 24.12038 | 55.16052 | 29343 ft | 482 kts | 251° |
| 2026-05-07 23:23 | 24.11314 | 55.13758 | 29525 ft | 482 kts | 251° |
| 2026-05-07 23:23 | 24.10220 | 55.10293 | 29772 ft | 482 kts | 251° |
| 2026-05-07 23:24 | 24.09122 | 55.06819 | 29778 ft | 483 kts | 251° |
| 2026-05-07 23:24 | 24.06924 | 54.99855 | 29809 ft | 485 kts | 251° |
| 2026-05-07 23:25 | 24.04726 | 54.92912 | 29832 ft | 484 kts | 250° |
| 2026-05-07 23:25 | 24.02525 | 54.85970 | 29814 ft | 488 kts | 250° |
| 2026-05-07 23:26 | 24.00293 | 54.78947 | 29805 ft | 489 kts | 250° |
| 2026-05-07 23:26 | 23.98053 | 54.71913 | 29814 ft | 489 kts | 250° |
| 2026-05-07 23:27 | 23.94696 | 54.61382 | 29806 ft | 488 kts | 250° |
| 2026-05-07 23:27 | 23.92472 | 54.54430 | 29810 ft | 488 kts | 250° |
| 2026-05-07 23:28 | 23.90236 | 54.47448 | 29815 ft | 486 kts | 250° |
| 2026-05-07 23:28 | 23.87998 | 54.40479 | 29808 ft | 486 kts | 250° |
| 2026-05-07 23:29 | 23.85761 | 54.33520 | 29814 ft | 485 kts | 250° |
| 2026-05-07 23:29 | 23.83538 | 54.26620 | 29813 ft | 485 kts | 250° |
| 2026-05-07 23:30 | 23.81298 | 54.19671 | 29814 ft | 485 kts | 250° |
| 2026-05-07 23:30 | 23.79054 | 54.12718 | 29815 ft | 485 kts | 250° |
| 2026-05-07 23:31 | 23.76806 | 54.05772 | 29817 ft | 485 kts | 250° |
| 2026-05-07 23:31 | 23.74551 | 53.98823 | 29818 ft | 486 kts | 250° |
| 2026-05-07 23:32 | 23.72311 | 53.91922 | 29821 ft | 486 kts | 250° |
| 2026-05-07 23:32 | 23.70050 | 53.84973 | 29823 ft | 486 kts | 250° |
| 2026-05-07 23:33 | 23.67785 | 53.78022 | 29825 ft | 486 kts | 250° |
| 2026-05-07 23:33 | 23.65518 | 53.71078 | 29824 ft | 486 kts | 250° |
| 2026-05-07 23:34 | 23.63263 | 53.64180 | 29822 ft | 486 kts | 250° |
| 2026-05-07 23:34 | 23.60990 | 53.57239 | 29823 ft | 486 kts | 250° |
| 2026-05-07 23:35 | 23.58709 | 53.50289 | 29825 ft | 487 kts | 250° |
| 2026-05-07 23:35 | 23.56427 | 53.43346 | 29827 ft | 487 kts | 250° |
| 2026-05-07 23:36 | 23.54157 | 53.36449 | 29825 ft | 487 kts | 250° |
| 2026-05-07 23:36 | 23.51869 | 53.29509 | 29829 ft | 487 kts | 250° |
| 2026-05-07 23:37 | 23.49577 | 53.22574 | 29831 ft | 487 kts | 250° |
| 2026-05-07 23:37 | 23.47281 | 53.15631 | 29828 ft | 487 kts | 250° |
| 2026-05-07 23:38 | 23.44997 | 53.08736 | 29823 ft | 487 kts | 250° |
| 2026-05-07 23:38 | 23.42692 | 53.01794 | 29827 ft | 487 kts | 250° |
| 2026-05-07 23:39 | 23.40253 | 52.94917 | 29819 ft | 487 kts | 244° |
| 2026-05-07 23:39 | 23.36998 | 52.88463 | 29835 ft | 486 kts | 240° |
| 2026-05-07 23:40 | 23.33656 | 52.82071 | 29827 ft | 486 kts | 240° |
| 2026-05-07 23:40 | 23.30368 | 52.75700 | 29828 ft | 486 kts | 240° |
| 2026-05-07 23:41 | 23.27067 | 52.69286 | 29827 ft | 486 kts | 241° |
| 2026-05-07 23:41 | 23.23770 | 52.62881 | 29825 ft | 485 kts | 241° |
| 2026-05-07 23:42 | 23.20467 | 52.56484 | 29824 ft | 485 kts | 240° |
| 2026-05-07 23:42 | 23.17431 | 52.49947 | 29825 ft | 484 kts | 248° |
| 2026-05-07 23:43 | 23.15305 | 52.43050 | 29829 ft | 485 kts | 251° |
| 2026-05-07 23:43 | 23.13132 | 52.36117 | 29822 ft | 485 kts | 250° |
| 2026-05-07 23:44 | 23.10917 | 52.29196 | 29821 ft | 485 kts | 250° |
| 2026-05-07 23:44 | 23.08701 | 52.22267 | 29820 ft | 486 kts | 250° |
| 2026-05-07 23:45 | 23.06503 | 52.15383 | 29825 ft | 486 kts | 250° |
| 2026-05-07 23:45 | 23.04277 | 52.08410 | 29826 ft | 485 kts | 250° |
| 2026-05-07 23:46 | 23.02076 | 52.01535 | 29822 ft | 485 kts | 250° |
| 2026-05-07 23:46 | 22.99859 | 51.94612 | 29827 ft | 485 kts | 250° |
| 2026-05-07 23:47 | 22.97623 | 51.87649 | 29832 ft | 486 kts | 250° |
| 2026-05-07 23:47 | 22.95408 | 51.80766 | 29830 ft | 486 kts | 250° |
| 2026-05-07 23:48 | 22.93178 | 51.73843 | 29824 ft | 486 kts | 250° |
| 2026-05-07 23:48 | 22.90944 | 51.66921 | 29827 ft | 486 kts | 250° |
| 2026-05-07 23:49 | 22.88709 | 51.60002 | 29828 ft | 486 kts | 250° |
| 2026-05-07 23:49 | 22.86469 | 51.53091 | 29832 ft | 485 kts | 250° |
| 2026-05-07 23:50 | 22.84924 | 51.46028 | 29837 ft | 486 kts | 262° |
| 2026-05-07 23:50 | 22.84669 | 51.38700 | 29834 ft | 488 kts | 272° |
| 2026-05-07 23:51 | 22.85172 | 51.31359 | 29839 ft | 489 kts | 272° |
| 2026-05-07 23:51 | 22.85670 | 51.24014 | 29835 ft | 489 kts | 272° |
| 2026-05-07 23:52 | 22.86131 | 51.16715 | 29831 ft | 488 kts | 272° |
| 2026-05-07 23:52 | 22.86576 | 51.09372 | 29833 ft | 488 kts | 272° |
| 2026-05-07 23:53 | 22.87018 | 51.02023 | 29835 ft | 488 kts | 272° |
| 2026-05-07 23:53 | 22.87456 | 50.94676 | 29835 ft | 488 kts | 272° |
| 2026-05-07 23:54 | 22.87888 | 50.87375 | 29844 ft | 488 kts | 272° |
| 2026-05-07 23:54 | 22.88318 | 50.80022 | 29842 ft | 489 kts | 272° |
| 2026-05-07 23:55 | 22.88747 | 50.72671 | 29836 ft | 488 kts | 272° |
| 2026-05-07 23:55 | 22.89172 | 50.65328 | 29838 ft | 488 kts | 272° |
| 2026-05-07 23:56 | 22.89593 | 50.57986 | 29847 ft | 487 kts | 272° |
| 2026-05-07 23:56 | 22.90006 | 50.50707 | 29844 ft | 487 kts | 272° |
| 2026-05-07 23:57 | 22.90422 | 50.43386 | 29834 ft | 486 kts | 272° |
| 2026-05-07 23:57 | 22.90831 | 50.36078 | 29840 ft | 485 kts | 272° |
| 2026-05-07 23:58 | 22.91236 | 50.28776 | 29843 ft | 485 kts | 272° |
| 2026-05-07 23:58 | 22.91637 | 50.21473 | 29837 ft | 485 kts | 272° |
| 2026-05-07 23:59 | 22.92037 | 50.14171 | 29843 ft | 485 kts | 271° |
| 2026-05-07 23:59 | 22.92433 | 50.06864 | 29843 ft | 485 kts | 271° |
| 2026-05-08 00:00 | 22.92822 | 49.99603 | 29842 ft | 486 kts | 271° |
| 2026-05-08 00:00 | 22.93216 | 49.92243 | 29851 ft | 486 kts | 271° |
| 2026-05-08 00:01 | 22.93599 | 49.84970 | 29858 ft | 486 kts | 271° |
| 2026-05-08 00:01 | 22.93980 | 49.77646 | 29836 ft | 485 kts | 271° |
| 2026-05-08 00:02 | 22.94359 | 49.70341 | 29852 ft | 485 kts | 271° |
| 2026-05-08 00:02 | 22.94734 | 49.63058 | 29846 ft | 484 kts | 271° |
| 2026-05-08 00:03 | 22.95106 | 49.55766 | 29844 ft | 484 kts | 271° |
| 2026-05-08 00:03 | 22.95475 | 49.48483 | 29844 ft | 484 kts | 270° |
| 2026-05-08 00:04 | 22.95839 | 49.41193 | 29851 ft | 484 kts | 270° |
| 2026-05-08 00:04 | 22.96198 | 49.33899 | 29847 ft | 484 kts | 270° |
| 2026-05-08 00:05 | 22.96554 | 49.26654 | 29852 ft | 484 kts | 270° |
| 2026-05-08 00:05 | 22.96908 | 49.19351 | 29857 ft | 485 kts | 270° |
| 2026-05-08 00:06 | 22.97263 | 49.12042 | 29850 ft | 485 kts | 270° |
| 2026-05-08 00:06 | 22.97611 | 49.04747 | 29845 ft | 484 kts | 270° |
| 2026-05-08 00:07 | 22.97956 | 48.97463 | 29860 ft | 483 kts | 270° |
| 2026-05-08 00:07 | 22.98297 | 48.90189 | 29860 ft | 482 kts | 270° |
| 2026-05-08 00:08 | 22.98632 | 48.82927 | 29851 ft | 482 kts | 270° |
| 2026-05-08 00:08 | 22.98964 | 48.75657 | 29860 ft | 482 kts | 270° |
| 2026-05-08 00:09 | 22.99293 | 48.68386 | 29861 ft | 483 kts | 270° |
| 2026-05-08 00:09 | 22.99620 | 48.61151 | 29860 ft | 483 kts | 270° |
| 2026-05-08 00:10 | 22.99946 | 48.53868 | 29867 ft | 484 kts | 270° |
| 2026-05-08 00:10 | 23.00267 | 48.46573 | 29872 ft | 484 kts | 269° |
| 2026-05-08 00:11 | 23.00584 | 48.39289 | 29849 ft | 483 kts | 269° |
| 2026-05-08 00:11 | 23.00897 | 48.32020 | 29854 ft | 482 kts | 269° |
| 2026-05-08 00:12 | 23.01205 | 48.24806 | 29861 ft | 481 kts | 269° |
| 2026-05-08 00:12 | 23.01513 | 48.17546 | 29860 ft | 481 kts | 269° |
| 2026-05-08 00:13 | 23.01816 | 48.10289 | 29862 ft | 481 kts | 269° |
| 2026-05-08 00:13 | 23.02112 | 48.03084 | 29876 ft | 481 kts | 269° |
| 2026-05-08 00:14 | 23.02409 | 47.95832 | 29865 ft | 481 kts | 269° |
| 2026-05-08 00:14 | 23.02703 | 47.88574 | 29867 ft | 480 kts | 270° |
| 2026-05-08 00:15 | 23.03234 | 47.84987 | 29874 ft | 487 kts | 284° |
| 2026-05-08 00:15 | 23.04698 | 47.81642 | 29882 ft | 498 kts | 298° |
| 2026-05-08 00:15 | 23.06866 | 47.78678 | 29883 ft | 507 kts | 310° |
| 2026-05-08 00:15 | 23.09658 | 47.76285 | 29879 ft | 515 kts | 324° |
| 2026-05-08 00:16 | 23.15820 | 47.72348 | 29884 ft | 519 kts | 324° |
| 2026-05-08 00:16 | 23.22009 | 47.68277 | 29920 ft | 521 kts | 323° |
| 2026-05-08 00:17 | 23.28172 | 47.64103 | 29905 ft | 522 kts | 323° |
| 2026-05-08 00:17 | 23.34328 | 47.59912 | 29914 ft | 522 kts | 323° |
| 2026-05-08 00:18 | 23.40443 | 47.55755 | 29913 ft | 521 kts | 322° |
| 2026-05-08 00:18 | 23.46571 | 47.51587 | 29922 ft | 518 kts | 322° |
| 2026-05-08 00:19 | 23.52678 | 47.47448 | 29922 ft | 515 kts | 322° |
| 2026-05-08 00:19 | 23.58753 | 47.43327 | 29936 ft | 514 kts | 322° |
| 2026-05-08 00:20 | 23.64811 | 47.39210 | 29949 ft | 513 kts | 322° |
| 2026-05-08 00:20 | 23.70818 | 47.35124 | 29948 ft | 512 kts | 322° |
| 2026-05-08 00:21 | 23.76855 | 47.31016 | 29941 ft | 511 kts | 322° |
| 2026-05-08 00:21 | 23.82877 | 47.26911 | 29967 ft | 510 kts | 322° |
| 2026-05-08 00:22 | 23.88889 | 47.22805 | 29957 ft | 510 kts | 322° |
| 2026-05-08 00:22 | 23.94900 | 47.18697 | 29964 ft | 509 kts | 322° |
| 2026-05-08 00:23 | 24.00906 | 47.14591 | 29964 ft | 509 kts | 322° |
| 2026-05-08 00:23 | 24.06910 | 47.10479 | 29974 ft | 509 kts | 322° |
| 2026-05-08 00:24 | 24.12982 | 47.06581 | 29970 ft | 514 kts | 329° |
| 2026-05-08 00:24 | 24.19586 | 47.03489 | 30005 ft | 517 kts | 332° |
| 2026-05-08 00:25 | 24.26235 | 47.00484 | 29990 ft | 517 kts | 332° |
| 2026-05-08 00:25 | 24.32865 | 46.97426 | 29999 ft | 517 kts | 331° |
| 2026-05-08 00:26 | 24.39477 | 46.94344 | 30019 ft | 517 kts | 331° |
| 2026-05-08 00:26 | 24.46099 | 46.91249 | 29995 ft | 517 kts | 331° |
| 2026-05-08 00:27 | 24.52718 | 46.88155 | 30005 ft | 517 kts | 331° |
| 2026-05-08 00:27 | 24.59277 | 46.85070 | 30002 ft | 516 kts | 331° |
| 2026-05-08 00:28 | 24.65881 | 46.81989 | 30012 ft | 515 kts | 331° |
| 2026-05-08 00:28 | 24.72466 | 46.78911 | 30015 ft | 514 kts | 331° |
| 2026-05-08 00:29 | 24.79040 | 46.75825 | 30037 ft | 514 kts | 331° |
| 2026-05-08 00:29 | 24.85618 | 46.72729 | 30022 ft | 514 kts | 331° |
| 2026-05-08 00:30 | 24.92192 | 46.69635 | 30023 ft | 514 kts | 331° |
| 2026-05-08 00:30 | 24.98371 | 46.65939 | 30027 ft | 505 kts | 320° |
| 2026-05-08 00:31 | 25.03795 | 46.61143 | 30025 ft | 497 kts | 311° |
| 2026-05-08 00:31 | 25.08829 | 46.55918 | 30028 ft | 497 kts | 311° |
| 2026-05-08 00:32 | 25.13891 | 46.50688 | 30037 ft | 499 kts | 311° |
| 2026-05-08 00:32 | 25.18980 | 46.45468 | 30027 ft | 500 kts | 311° |
| 2026-05-08 00:33 | 25.24045 | 46.40285 | 30021 ft | 500 kts | 311° |
| 2026-05-08 00:33 | 25.29150 | 46.35053 | 30022 ft | 501 kts | 311° |
| 2026-05-08 00:34 | 25.34252 | 46.29813 | 30024 ft | 501 kts | 311° |
| 2026-05-08 00:34 | 25.39356 | 46.24567 | 30017 ft | 501 kts | 311° |
| 2026-05-08 00:35 | 25.44423 | 46.19350 | 30013 ft | 501 kts | 311° |
| 2026-05-08 00:35 | 25.49519 | 46.14100 | 30009 ft | 500 kts | 310° |
| 2026-05-08 00:36 | 25.54608 | 46.08851 | 30001 ft | 499 kts | 310° |
| 2026-05-08 00:36 | 25.59676 | 46.03611 | 29998 ft | 498 kts | 310° |
| 2026-05-08 00:37 | 25.64707 | 45.98411 | 30010 ft | 497 kts | 310° |
| 2026-05-08 00:38 | 25.72288 | 45.90564 | 29991 ft | 497 kts | 310° |
| 2026-05-08 00:38 | 25.77341 | 45.85325 | 29984 ft | 497 kts | 310° |
| 2026-05-08 00:39 | 25.82387 | 45.80085 | 29979 ft | 497 kts | 310° |
| 2026-05-08 00:39 | 25.87436 | 45.74837 | 29988 ft | 497 kts | 310° |
| 2026-05-08 00:40 | 25.92453 | 45.69622 | 29975 ft | 498 kts | 310° |
| 2026-05-08 00:40 | 25.97512 | 45.64358 | 29974 ft | 498 kts | 310° |
| 2026-05-08 00:41 | 26.02561 | 45.59096 | 29963 ft | 497 kts | 310° |
| 2026-05-08 00:41 | 26.07606 | 45.53828 | 29969 ft | 497 kts | 310° |
| 2026-05-08 00:42 | 26.12650 | 45.48560 | 29969 ft | 498 kts | 309° |
| 2026-05-08 00:42 | 26.17662 | 45.43311 | 29962 ft | 498 kts | 309° |
| 2026-05-08 00:43 | 26.22700 | 45.38016 | 29966 ft | 498 kts | 309° |
| 2026-05-08 00:43 | 26.27742 | 45.32705 | 29974 ft | 499 kts | 309° |
| 2026-05-08 00:44 | 26.32786 | 45.27391 | 29969 ft | 499 kts | 309° |
| 2026-05-08 00:44 | 26.37853 | 45.22077 | 29966 ft | 500 kts | 309° |
| 2026-05-08 00:45 | 26.42921 | 45.16757 | 29979 ft | 500 kts | 309° |
| 2026-05-08 00:45 | 26.47953 | 45.11463 | 29957 ft | 501 kts | 309° |
| 2026-05-08 00:46 | 26.53021 | 45.06122 | 29952 ft | 501 kts | 309° |
| 2026-05-08 00:46 | 26.58090 | 45.00775 | 29964 ft | 502 kts | 309° |
| 2026-05-08 00:47 | 26.63176 | 44.95406 | 29969 ft | 504 kts | 309° |
| 2026-05-08 00:47 | 26.68281 | 44.90017 | 29965 ft | 506 kts | 309° |
| 2026-05-08 00:48 | 26.73370 | 44.84638 | 29962 ft | 507 kts | 309° |
| 2026-05-08 00:48 | 26.78497 | 44.79209 | 29961 ft | 508 kts | 309° |
| 2026-05-08 00:49 | 26.83614 | 44.73763 | 29958 ft | 507 kts | 309° |
| 2026-05-08 00:49 | 26.88720 | 44.68315 | 29953 ft | 506 kts | 309° |
| 2026-05-08 00:50 | 26.93812 | 44.62877 | 29959 ft | 506 kts | 308° |
| 2026-05-08 00:50 | 26.98871 | 44.57467 | 29950 ft | 506 kts | 308° |
| 2026-05-08 00:51 | 27.03970 | 44.52026 | 29959 ft | 506 kts | 308° |
| 2026-05-08 00:51 | 27.09063 | 44.46591 | 29955 ft | 505 kts | 308° |
| 2026-05-08 00:52 | 27.14157 | 44.41147 | 29980 ft | 506 kts | 308° |
| 2026-05-08 00:52 | 27.19222 | 44.35721 | 29961 ft | 507 kts | 308° |
| 2026-05-08 00:53 | 27.24333 | 44.30234 | 29954 ft | 509 kts | 308° |
| 2026-05-08 00:53 | 27.29450 | 44.24735 | 29969 ft | 510 kts | 308° |
| 2026-05-08 00:54 | 27.34588 | 44.19209 | 29970 ft | 511 kts | 309° |
| 2026-05-08 00:54 | 27.39727 | 44.13674 | 29957 ft | 511 kts | 309° |
| 2026-05-08 00:55 | 27.44826 | 44.08172 | 29964 ft | 511 kts | 309° |
| 2026-05-08 00:55 | 27.49952 | 44.02634 | 29980 ft | 510 kts | 309° |
| 2026-05-08 00:56 | 27.55068 | 43.97097 | 29963 ft | 510 kts | 308° |
| 2026-05-08 00:56 | 27.60189 | 43.91551 | 29964 ft | 510 kts | 308° |
| 2026-05-08 00:57 | 27.65275 | 43.86036 | 29966 ft | 511 kts | 308° |
| 2026-05-08 00:57 | 27.70385 | 43.80476 | 29954 ft | 511 kts | 308° |
| 2026-05-08 00:58 | 27.75510 | 43.74900 | 29962 ft | 512 kts | 308° |
| 2026-05-08 00:58 | 27.80637 | 43.69316 | 29969 ft | 512 kts | 308° |
| 2026-05-08 00:59 | 27.85728 | 43.63745 | 29968 ft | 512 kts | 307° |
| 2026-05-08 00:59 | 27.90625 | 43.57931 | 29979 ft | 510 kts | 305° |
| 2026-05-08 01:00 | 27.95424 | 43.52028 | 29958 ft | 509 kts | 305° |
| 2026-05-08 01:00 | 28.00239 | 43.46157 | 29974 ft | 509 kts | 306° |
| 2026-05-08 01:01 | 28.05047 | 43.40345 | 30013 ft | 509 kts | 306° |
| 2026-05-08 01:01 | 28.09892 | 43.34492 | 29983 ft | 509 kts | 306° |
| 2026-05-08 01:02 | 28.14724 | 43.28648 | 29979 ft | 507 kts | 306° |
| 2026-05-08 01:02 | 28.19537 | 43.22812 | 29986 ft | 506 kts | 305° |
| 2026-05-08 01:03 | 28.24341 | 43.16975 | 29990 ft | 507 kts | 305° |
| 2026-05-08 01:03 | 28.29158 | 43.11117 | 29990 ft | 508 kts | 305° |
| 2026-05-08 01:04 | 28.33947 | 43.05284 | 29995 ft | 509 kts | 305° |
| 2026-05-08 01:04 | 28.38772 | 42.99401 | 30010 ft | 510 kts | 305° |
| 2026-05-08 01:05 | 28.43608 | 42.93495 | 29997 ft | 511 kts | 305° |
| 2026-05-08 01:05 | 28.48412 | 42.87619 | 30001 ft | 510 kts | 305° |
| 2026-05-08 01:06 | 28.53238 | 42.81710 | 29993 ft | 510 kts | 305° |
| 2026-05-08 01:06 | 28.58019 | 42.75844 | 29999 ft | 509 kts | 305° |
| 2026-05-08 01:07 | 28.62876 | 42.69875 | 30242 ft | 512 kts | 305° |
| 2026-05-08 01:07 | 28.65291 | 42.66907 | 30566 ft | 510 kts | 304° |
| 2026-05-08 01:07 | 28.67690 | 42.63955 | 30905 ft | 507 kts | 304° |
| 2026-05-08 01:07 | 28.70080 | 42.61008 | 31260 ft | 505 kts | 304° |
| 2026-05-08 01:08 | 28.72459 | 42.58067 | 31567 ft | 504 kts | 304° |
| 2026-05-08 01:08 | 28.74033 | 42.56119 | 31722 ft | 504 kts | 303° |
| 2026-05-08 01:08 | 28.76405 | 42.53182 | 31911 ft | 504 kts | 303° |
| 2026-05-08 01:09 | 28.81938 | 42.46322 | 32021 ft | 505 kts | 303° |
| 2026-05-08 01:09 | 28.86692 | 42.40425 | 32040 ft | 504 kts | 303° |
| 2026-05-08 01:10 | 28.91432 | 42.34538 | 32023 ft | 503 kts | 303° |
| 2026-05-08 01:10 | 28.95360 | 42.29651 | 32023 ft | 502 kts | 303° |
| 2026-05-08 01:11 | 29.00071 | 42.23778 | 32018 ft | 500 kts | 303° |
| 2026-05-08 01:11 | 29.04769 | 42.17917 | 32049 ft | 500 kts | 304° |
| 2026-05-08 01:12 | 29.09472 | 42.12051 | 32028 ft | 500 kts | 304° |
| 2026-05-08 01:12 | 29.14169 | 42.06186 | 32026 ft | 500 kts | 303° |
| 2026-05-08 01:13 | 29.18829 | 42.00347 | 32034 ft | 500 kts | 303° |
| 2026-05-08 01:13 | 29.23517 | 41.94473 | 32025 ft | 500 kts | 304° |
| 2026-05-08 01:14 | 29.28197 | 41.88606 | 32023 ft | 498 kts | 304° |
| 2026-05-08 01:14 | 29.32850 | 41.82757 | 32049 ft | 496 kts | 304° |
| 2026-05-08 01:15 | 29.37488 | 41.76917 | 32061 ft | 495 kts | 304° |
| 2026-05-08 01:15 | 29.42109 | 41.71091 | 32047 ft | 493 kts | 304° |
| 2026-05-08 01:16 | 29.46683 | 41.65317 | 32043 ft | 491 kts | 304° |
| 2026-05-08 01:16 | 29.51272 | 41.59512 | 32051 ft | 490 kts | 304° |
| 2026-05-08 01:17 | 29.55851 | 41.53711 | 32068 ft | 490 kts | 305° |
| 2026-05-08 01:17 | 29.60432 | 41.47905 | 32060 ft | 490 kts | 305° |
| 2026-05-08 01:18 | 29.64980 | 41.42131 | 32058 ft | 490 kts | 305° |
| 2026-05-08 01:18 | 29.69548 | 41.36317 | 32058 ft | 490 kts | 305° |
| 2026-05-08 01:19 | 29.74146 | 41.30527 | 32059 ft | 492 kts | 309° |
| 2026-05-08 01:19 | 29.79243 | 41.25212 | 32063 ft | 495 kts | 313° |
| 2026-05-08 01:20 | 29.84426 | 41.19980 | 32064 ft | 495 kts | 313° |
| 2026-05-08 01:20 | 29.89547 | 41.14763 | 32062 ft | 495 kts | 313° |
| 2026-05-08 01:21 | 29.94692 | 41.09482 | 32070 ft | 495 kts | 314° |
| 2026-05-08 01:21 | 29.99818 | 41.04197 | 32056 ft | 494 kts | 314° |
| 2026-05-08 01:22 | 30.04927 | 40.98925 | 32063 ft | 493 kts | 313° |
| 2026-05-08 01:22 | 30.09995 | 40.93689 | 32072 ft | 492 kts | 314° |
| 2026-05-08 01:23 | 30.15092 | 40.88419 | 32074 ft | 491 kts | 314° |
| 2026-05-08 01:23 | 30.20180 | 40.83152 | 32054 ft | 490 kts | 314° |
| 2026-05-08 01:24 | 30.25258 | 40.77884 | 32058 ft | 490 kts | 314° |
| 2026-05-08 01:24 | 30.30328 | 40.72618 | 32061 ft | 490 kts | 314° |
| 2026-05-08 01:25 | 30.35399 | 40.67340 | 32075 ft | 491 kts | 314° |
| 2026-05-08 01:25 | 30.40481 | 40.62058 | 32058 ft | 491 kts | 314° |
| 2026-05-08 01:26 | 30.45567 | 40.56854 | 32082 ft | 491 kts | 315° |
| 2026-05-08 01:26 | 30.50692 | 40.51626 | 32067 ft | 491 kts | 315° |
| 2026-05-08 01:27 | 30.55815 | 40.46380 | 32079 ft | 491 kts | 315° |
| 2026-05-08 01:27 | 30.60928 | 40.41126 | 32073 ft | 491 kts | 315° |
| 2026-05-08 01:28 | 30.66035 | 40.35873 | 32068 ft | 490 kts | 315° |
| 2026-05-08 01:28 | 30.71129 | 40.30622 | 32069 ft | 489 kts | 315° |
| 2026-05-08 01:29 | 30.76220 | 40.25366 | 32074 ft | 489 kts | 315° |
| 2026-05-08 01:29 | 30.81299 | 40.20114 | 32078 ft | 488 kts | 315° |
| 2026-05-08 01:30 | 30.86375 | 40.14863 | 32072 ft | 488 kts | 315° |
| 2026-05-08 01:30 | 30.91411 | 40.09644 | 32070 ft | 487 kts | 315° |
| 2026-05-08 01:31 | 30.96469 | 40.04395 | 32071 ft | 487 kts | 315° |
| 2026-05-08 01:31 | 31.01526 | 39.99138 | 32074 ft | 487 kts | 315° |
| 2026-05-08 01:32 | 31.06581 | 39.93872 | 32072 ft | 487 kts | 315° |
| 2026-05-08 01:32 | 31.11630 | 39.88609 | 32071 ft | 487 kts | 315° |
| 2026-05-08 01:33 | 31.16676 | 39.83340 | 32073 ft | 487 kts | 315° |
| 2026-05-08 01:33 | 31.21679 | 39.78105 | 32076 ft | 486 kts | 315° |
| 2026-05-08 01:34 | 31.26713 | 39.72834 | 32072 ft | 486 kts | 315° |
| 2026-05-08 01:34 | 31.31739 | 39.67562 | 32076 ft | 485 kts | 315° |
| 2026-05-08 01:35 | 31.36762 | 39.62283 | 32072 ft | 485 kts | 315° |
| 2026-05-08 01:35 | 31.41749 | 39.57038 | 32078 ft | 485 kts | 314° |
| 2026-05-08 01:36 | 31.46763 | 39.51748 | 32076 ft | 485 kts | 314° |
| 2026-05-08 01:36 | 31.51765 | 39.46447 | 32073 ft | 485 kts | 314° |
| 2026-05-08 01:37 | 31.56768 | 39.41140 | 32075 ft | 485 kts | 314° |
| 2026-05-08 01:37 | 31.61774 | 39.35829 | 32079 ft | 485 kts | 314° |
| 2026-05-08 01:38 | 31.66738 | 39.30548 | 32076 ft | 485 kts | 314° |
| 2026-05-08 01:38 | 31.71736 | 39.25224 | 32077 ft | 485 kts | 314° |
| 2026-05-08 01:39 | 31.76732 | 39.19894 | 32078 ft | 485 kts | 314° |
| 2026-05-08 01:39 | 31.82163 | 39.15120 | 32084 ft | 491 kts | 325° |
| 2026-05-08 01:40 | 31.88251 | 39.11439 | 32098 ft | 493 kts | 330° |
| 2026-05-08 01:40 | 31.94401 | 39.07894 | 32082 ft | 491 kts | 330° |
| 2026-05-08 01:41 | 32.00463 | 39.04314 | 32073 ft | 490 kts | 330° |
| 2026-05-08 01:41 | 32.06543 | 39.00717 | 32080 ft | 488 kts | 330° |
| 2026-05-08 01:42 | 32.12613 | 38.97145 | 32089 ft | 487 kts | 330° |
| 2026-05-08 01:42 | 32.18669 | 38.93576 | 32079 ft | 486 kts | 330° |
| 2026-05-08 01:43 | 32.24709 | 38.90009 | 32082 ft | 485 kts | 330° |
| 2026-05-08 01:43 | 32.30702 | 38.86460 | 32083 ft | 484 kts | 330° |
| 2026-05-08 01:44 | 32.36719 | 38.82894 | 32085 ft | 483 kts | 331° |
| 2026-05-08 01:44 | 32.42730 | 38.79325 | 32078 ft | 483 kts | 331° |
| 2026-05-08 01:45 | 32.48734 | 38.75757 | 32079 ft | 483 kts | 331° |
| 2026-05-08 01:45 | 32.54736 | 38.72183 | 32074 ft | 483 kts | 331° |
| 2026-05-08 01:46 | 32.60735 | 38.68606 | 32076 ft | 483 kts | 331° |
| 2026-05-08 01:46 | 32.66734 | 38.65028 | 32078 ft | 483 kts | 331° |
| 2026-05-08 01:47 | 32.72728 | 38.61452 | 32079 ft | 481 kts | 331° |
| 2026-05-08 01:47 | 32.78705 | 38.57877 | 32074 ft | 481 kts | 331° |
| 2026-05-08 01:48 | 32.87652 | 38.52517 | 32079 ft | 479 kts | 331° |
| 2026-05-08 01:48 | 32.93600 | 38.48946 | 32089 ft | 479 kts | 331° |
| 2026-05-08 01:49 | 32.99504 | 38.45395 | 32081 ft | 479 kts | 331° |
| 2026-05-08 01:49 | 33.05453 | 38.41816 | 32080 ft | 479 kts | 331° |
| 2026-05-08 01:50 | 33.11402 | 38.38229 | 32087 ft | 479 kts | 330° |
| 2026-05-08 01:50 | 33.17342 | 38.34627 | 32097 ft | 479 kts | 330° |
| 2026-05-08 01:51 | 33.23238 | 38.31018 | 32086 ft | 479 kts | 330° |
| 2026-05-08 01:51 | 33.29170 | 38.27394 | 32094 ft | 479 kts | 330° |
| 2026-05-08 01:52 | 33.35110 | 38.23768 | 32092 ft | 479 kts | 330° |
| 2026-05-08 01:52 | 33.41042 | 38.20136 | 32096 ft | 479 kts | 330° |
| 2026-05-08 01:53 | 33.46951 | 38.16515 | 32081 ft | 471 kts | 331° |